Time;durP1;ratioP1;P1;durP2;ratioP2;P2;SDS_P1;SDS_P2;PMS_P1;PMS_P2;Temp;Humidity;BMP_temperature;BMP_pressure;BME280_temperature;BME280_humidity;BME280_pressure;Samples;Min_cycle;Max_cycle;Signal;HPM_P1;HPM_P2
2023/10/24 00:01:21;;;;;;;;;;;;;;;;;;6177807;23;19939;-88
2023/10/24 00:03:47;;;;;;;;;;;;;;;;;;6177398;23;19916;-88
2023/10/24 00:06:13;;;;;;;;;;;;;;;;;;6176861;23;19928;-88
2023/10/24 00:08:42;;;;;;;;;;;;;;;;;;6177466;23;19970;-88
2023/10/24 00:11:08;;;;;;;;;;;;;;;;;;6174651;23;19919;-88
2023/10/24 00:13:34;;;;;;;;;;;;;;;;;;6177675;23;19919;-88
2023/10/24 00:16:00;;;;;;;;;;;;;;;;;;6149064;23;20288;-88
2023/10/24 00:18:26;;;;;;;;;;;;;;;;;;6148464;23;19919;-88
2023/10/24 00:20:51;;;;;;;;;;;;;;;;;;6173325;23;19938;-88
2023/10/24 00:23:17;;;;;;;;;;;;;;;;;;6174599;23;20309;-88
2023/10/24 00:25:43;;;;;;;;;;;;;;;;;;6173849;23;20253;-88
2023/10/24 00:28:09;;;;;;;;;;;;;;;;;;6152869;23;20676;-88
2023/10/24 00:30:35;;;;;;;;;;;;;;;;;;6151585;23;19927;-88
2023/10/24 00:33:01;;;;;;;;;;;;;;;;;;6174509;23;20256;-88
2023/10/24 00:35:27;;;;;;;;;;;;;;;;;;6152379;23;19923;-88
2023/10/24 00:37:54;;;;;;;;;;;;;;;;;;6173802;23;19924;-88
2023/10/24 00:40:20;;;;;;;;;;;;;;;;;;6175951;23;20237;-87
2023/10/24 00:42:46;;;;;;;;;;;;;;;;;;6149741;23;19994;-88
2023/10/24 00:45:12;;;;;;;;;;;;;;;;;;6176599;23;19920;-88
2023/10/24 00:47:37;;;;;;;;;;;;;;;;;;6151015;23;19930;-88
2023/10/24 00:50:03;;;;;;;;;;;;;;;;;;6147511;23;19921;-88
2023/10/24 00:52:29;;;;;;;;;;;;;;;;;;6177419;23;19919;-88
2023/10/24 00:54:55;;;;;;;;;;;;;;;;;;6174660;23;19926;-88
2023/10/24 00:57:21;;;;;;;;;;;;;;;;;;6152507;23;19923;-88
2023/10/24 00:59:47;;;;;;;;;;;;;;;;;;6150072;23;20017;-88
2023/10/24 01:02:13;;;;;;;;;;;;;;;;;;6175347;23;20058;-88
2023/10/24 01:04:39;;;;;;;;;;;;;;;;;;6151213;23;19920;-88
2023/10/24 01:07:05;;;;;;;;;;;;;;;;;;6145865;23;19931;-87
2023/10/24 01:09:31;;;;;;;;;;;;;;;;;;6146684;23;19944;-88
2023/10/24 01:11:57;;;;;;;;;;;;;;;;;;6168264;23;19955;-88
2023/10/24 01:14:23;;;;;;;;;;;;;;;;;;6147614;23;19924;-88
2023/10/24 01:16:49;;;;;;;;;;;;;;;;;;6143481;23;19920;-88
2023/10/24 01:19:15;;;;;;;;;;;;;;;;;;6144640;23;19924;-88
2023/10/24 01:21:41;;;;;;;;;;;;;;;;;;6141861;23;19924;-88
2023/10/24 01:24:07;;;;;;;;;;;;;;;;;;6145135;23;19923;-88
2023/10/24 01:26:33;;;;;;;;;;;;;;;;;;6146866;23;19987;-88
2023/10/24 01:28:59;;;;;;;;;;;;;;;;;;6144325;23;20329;-88
2023/10/24 01:31:25;;;;;;;;;;;;;;;;;;6145524;23;19920;-88
2023/10/24 01:33:51;;;;;;;;;;;;;;;;;;6166090;23;20038;-89
2023/10/24 01:36:17;;;;;;;;;;;;;;;;;;6169501;23;19987;-88
2023/10/24 01:38:43;;;;;;;;;;;;;;;;;;6144618;23;19920;-88
2023/10/24 01:41:09;;;;;;;;;;;;;;;;;;6145429;23;19923;-88
2023/10/24 01:43:35;;;;;;;;;;;;;;;;;;6144434;23;20034;-88
2023/10/24 01:46:02;;;;;;;;;;;;;;;;;;6143184;23;19920;-88
2023/10/24 01:48:28;;;;;;;;;;;;;;;;;;6147257;23;20647;-88
2023/10/24 01:50:54;;;;;;;;;;;;;;;;;;6142037;23;19939;-88
2023/10/24 01:53:20;;;;;;;;;;;;;;;;;;6145961;23;19920;-88
2023/10/24 01:55:46;;;;;;;;;;;;;;;;;;6143248;23;19921;-88
2023/10/24 01:58:12;;;;;;;;;;;;;;;;;;6143961;23;19938;-88
2023/10/24 02:00:37;;;;;;;;;;;;;;;;;;6146330;23;19920;-88
2023/10/24 02:03:03;;;;;;;;;;;;;;;;;;6153025;23;19925;-88
2023/10/24 02:05:29;;;;;;;;;;;;;;;;;;6150589;23;20354;-88
2023/10/24 02:07:55;;;;;;;;;;;;;;;;;;6145010;23;20273;-88
2023/10/24 02:10:21;;;;;;;;;;;;;;;;;;6147250;23;20246;-88
2023/10/24 02:12:47;;;;;;;;;;;;;;;;;;6118702;23;20054;-88
2023/10/24 02:15:13;;;;;;;;;;;;;;;;;;6145066;23;19998;-88
2023/10/24 02:17:41;;;;;;;;;;;;;;;;;;6120667;23;20237;-88
2023/10/24 02:20:07;;;;;;;;;;;;;;;;;;6117443;23;19991;-88
2023/10/24 02:22:33;;;;;;;;;;;;;;;;;;6144573;23;20345;-88
2023/10/24 02:24:59;;;;;;;;;;;;;;;;;;6169243;23;20301;-88
2023/10/24 02:27:25;;;;;;;;;;;;;;;;;;6146530;23;20330;-88
2023/10/24 02:29:51;;;;;;;;;;;;;;;;;;6119062;23;19927;-88
2023/10/24 02:32:17;;;;;;;;;;;;;;;;;;6147531;23;19920;-88
2023/10/24 02:34:43;;;;;;;;;;;;;;;;;;6117557;23;19924;-88
2023/10/24 02:37:09;;;;;;;;;;;;;;;;;;6142402;23;19920;-88
2023/10/24 02:39:35;;;;;;;;;;;;;;;;;;6169792;23;20264;-88
2023/10/24 02:42:01;;;;;;;;;;;;;;;;;;6117137;23;20491;-88
2023/10/24 02:44:27;;;;;;;;;;;;;;;;;;6143912;23;19916;-88
2023/10/24 02:46:53;;;;;;;;;;;;;;;;;;6166411;23;19924;-89
2023/10/24 02:49:19;;;;;;;;;;;;;;;;;;6142785;23;19920;-89
2023/10/24 02:51:44;;;;;;;;;;;;;;;;;;6141865;23;20010;-88
2023/10/24 02:54:10;;;;;;;;;;;;;;;;;;6145880;23;19924;-88
2023/10/24 02:56:36;;;;;;;;;;;;;;;;;;6143370;23;20015;-88
2023/10/24 02:59:02;;;;;;;;;;;;;;;;;;6141189;23;19924;-88
2023/10/24 03:01:28;;;;;;;;;;;;;;;;;;6166256;23;19977;-88
2023/10/24 03:03:54;;;;;;;;;;;;;;;;;;6142515;23;20367;-88
2023/10/24 03:06:20;;;;;;;;;;;;;;;;;;6147052;23;19924;-88
2023/10/24 03:08:46;;;;;;;;;;;;;;;;;;6122961;23;19920;-88
2023/10/24 03:11:12;;;;;;;;;;;;;;;;;;6152595;23;19987;-88
2023/10/24 03:13:38;;;;;;;;;;;;;;;;;;6150520;23;19920;-88
2023/10/24 03:16:04;;;;;;;;;;;;;;;;;;6145445;23;20039;-88
2023/10/24 03:18:34;;;;;;;;;;;;;;;;;;6122760;23;20249;-88
2023/10/24 03:21:00;;;;;;;;;;;;;;;;;;6144647;23;20236;-88
2023/10/24 03:23:26;;;;;;;;;;;;;;;;;;6143809;23;20296;-88
2023/10/24 03:25:52;;;;;;;;;;;;;;;;;;6119752;23;19921;-88
2023/10/24 03:28:17;;;;;;;;;;;;;;;;;;6145745;23;19920;-88
2023/10/24 03:30:43;;;;;;;;;;;;;;;;;;6145313;23;19920;-88
2023/10/24 03:33:09;;;;;;;;;;;;;;;;;;6149139;23;19927;-88
2023/10/24 03:35:35;;;;;;;;;;;;;;;;;;6146240;23;20308;-89
2023/10/24 03:38:02;;;;;;;;;;;;;;;;;;6145199;23;19920;-88
2023/10/24 03:40:28;;;;;;;;;;;;;;;;;;6121697;23;19920;-88
2023/10/24 03:42:54;;;;;;;;;;;;;;;;;;6142366;23;19928;-88
2023/10/24 03:45:20;;;;;;;;;;;;;;;;;;6121686;23;19946;-88
2023/10/24 03:47:46;;;;;;;;;;;;;;;;;;6119742;23;19923;-89
2023/10/24 03:50:13;;;;;;;;;;;;;;;;;;6121737;23;20435;-88
2023/10/24 03:52:39;;;;;;;;;;;;;;;;;;6123012;23;19920;-89
2023/10/24 03:55:05;;;;;;;;;;;;;;;;;;6121663;23;19978;-88
2023/10/24 03:57:31;;;;;;;;;;;;;;;;;;6147221;23;19983;-88
2023/10/24 03:59:57;;;;;;;;;;;;;;;;;;6146889;23;20610;-88
2023/10/24 04:02:23;;;;;;;;;;;;;;;;;;6148936;23;20675;-89
2023/10/24 04:04:49;;;;;;;;;;;;;;;;;;6122212;23;20413;-89
2023/10/24 04:07:16;;;;;;;;;;;;;;;;;;6205890;23;19920;-89
2023/10/24 04:09:42;;;;;;;;;;;;;;;;;;6175512;23;20391;-88
2023/10/24 04:12:08;;;;;;;;;;;;;;;;;;6152287;23;19916;-88
2023/10/24 04:14:34;;;;;;;;;;;;;;;;;;6153060;23;19986;-89
2023/10/24 04:17:00;;;;;;;;;;;;;;;;;;6149249;23;20259;-89
2023/10/24 04:19:26;;;;;;;;;;;;;;;;;;6149609;23;19974;-88
2023/10/24 04:21:52;;;;;;;;;;;;;;;;;;6171641;23;20253;-89
2023/10/24 04:24:18;;;;;;;;;;;;;;;;;;6202665;23;19966;-88
2023/10/24 04:26:44;;;;;;;;;;;;;;;;;;6149340;23;19916;-89
2023/10/24 04:29:11;;;;;;;;;;;;;;;;;;6152650;23;19927;-89
2023/10/24 04:31:37;;;;;;;;;;;;;;;;;;6203625;23;20349;-89
2023/10/24 04:34:04;;;;;;;;;;;;;;;;;;6173110;23;19930;-88
2023/10/24 04:36:30;;;;;;;;;;;;;;;;;;6152262;23;20344;-89
2023/10/24 04:38:56;;;;;;;;;;;;;;;;;;6172943;23;19920;-88
2023/10/24 04:41:22;;;;;;;;;;;;;;;;;;6202406;23;19974;-89
2023/10/24 04:43:48;;;;;;;;;;;;;;;;;;6149844;23;19920;-89
2023/10/24 04:46:14;;;;;;;;;;;;;;;;;;6176749;23;19926;-89
2023/10/24 04:48:40;;;;;;;;;;;;;;;;;;6175639;23;20368;-89
2023/10/24 04:51:07;;;;;;;;;;;;;;;;;;6174594;23;20303;-89
2023/10/24 04:53:33;;;;;;;;;;;;;;;;;;6151926;23;20353;-88
2023/10/24 04:55:59;;;;;;;;;;;;;;;;;;6172743;23;20253;-89
2023/10/24 04:58:25;;;;;;;;;;;;;;;;;;6203040;23;19920;-89
2023/10/24 05:00:52;;;;;;;;;;;;;;;;;;6201452;23;19926;-89
2023/10/24 05:03:18;;;;;;;;;;;;;;;;;;6151456;23;19931;-88
2023/10/24 05:05:44;;;;;;;;;;;;;;;;;;6146053;23;19924;-91
2023/10/24 05:08:11;;;;;;;;;;;;;;;;;;6149667;23;19923;-91
2023/10/24 05:10:37;;;;;;;;;;;;;;;;;;6150377;23;20306;-91
2023/10/24 05:13:03;;;;;;;;;;;;;;;;;;6145154;23;19951;-91
2023/10/24 05:15:29;;;;;;;;;;;;;;;;;;6148333;23;19995;-91
2023/10/24 05:17:55;;;;;;;;;;;;;;;;;;6147326;23;20006;-91
2023/10/24 05:20:21;;;;;;;;;;;;;;;;;;6150459;23;19939;-91
2023/10/24 05:22:47;;;;;;;;;;;;;;;;;;6147614;23;20231;-90
2023/10/24 05:25:13;;;;;;;;;;;;;;;;;;6149191;23;20280;-91
2023/10/24 05:27:40;;;;;;;;;;;;;;;;;;6149312;23;20257;-91
2023/10/24 05:30:06;;;;;;;;;;;;;;;;;;6149020;23;19987;-91
2023/10/24 05:32:32;;;;;;;;;;;;;;;;;;6149858;23;20349;-91
2023/10/24 05:34:57;;;;;;;;;;;;;;;;;;6147042;23;20250;-91
2023/10/24 05:37:23;;;;;;;;;;;;;;;;;;6150503;23;20328;-91
2023/10/24 05:39:49;;;;;;;;;;;;;;;;;;6147738;23;19921;-91
2023/10/24 05:42:15;;;;;;;;;;;;;;;;;;6150057;23;19966;-91
2023/10/24 05:44:41;;;;;;;;;;;;;;;;;;6146759;23;20234;-92
2023/10/24 05:47:07;;;;;;;;;;;;;;;;;;6146259;23;19998;-92
2023/10/24 05:49:34;;;;;;;;;;;;;;;;;;6146156;23;19920;-92
2023/10/24 05:52:00;;;;;;;;;;;;;;;;;;6145774;23;20426;-92
2023/10/24 05:54:26;;;;;;;;;;;;;;;;;;6148672;23;20309;-92
2023/10/24 05:56:52;;;;;;;;;;;;;;;;;;6144976;23;19916;-92
2023/10/24 05:59:18;;;;;;;;;;;;;;;;;;6148210;23;20007;-92
2023/10/24 06:01:44;;;;;;;;;;;;;;;;;;6144725;23;19931;-91
2023/10/24 06:04:10;;;;;;;;;;;;;;;;;;6147355;23;19920;-94
2023/10/24 06:06:35;;;;;;;;;;;;;;;;;;6172597;23;20243;-92
2023/10/24 06:09:02;;;;;;;;;;;;;;;;;;6171722;23;19927;-91
2023/10/24 06:11:29;;;;;;;;;;;;;;;;;;6149521;23;19920;-92
2023/10/24 06:13:55;;;;;;;;;;;;;;;;;;6170840;23;19979;-91
2023/10/24 06:16:21;;;;;;;;;;;;;;;;;;6173844;23;19916;-91
2023/10/24 06:18:47;;;;;;;;;;;;;;;;;;6172513;23;19942;-92
2023/10/24 06:21:13;;;;;;;;;;;;;;;;;;6174024;23;20004;-94
2023/10/24 06:23:43;;;;;;;;;;;;;;;;;;6172292;23;19924;-89
2023/10/24 06:26:12;;;;;;;;;;;;;;;;;;6171856;23;19920;-92
2023/10/24 06:28:38;;;;;;;;;;;;;;;;;;6173248;23;19987;-92
2023/10/24 06:31:07;;;;;;;;;;;;;;;;;;6170869;23;20361;-93
2023/10/24 06:33:33;;;;;;;;;;;;;;;;;;6147784;23;19927;-92
2023/10/24 06:36:02;;;;;;;;;;;;;;;;;;6171089;23;20448;-93
2023/10/24 06:38:28;;;;;;;;;;;;;;;;;;6174309;23;20233;-93
2023/10/24 06:40:55;;;;;;;;;;;;;;;;;;6170853;23;19920;-92
2023/10/24 06:43:21;;;;;;;;;;;;;;;;;;6176140;23;19930;-92
2023/10/24 06:45:47;;;;;;;;;;;;;;;;;;6173594;23;20430;-92
2023/10/24 06:48:13;;;;;;;;;;;;;;;;;;6176069;23;19927;-92
2023/10/24 06:50:39;;;;;;;;;;;;;;;;;;6177278;23;20345;-92
2023/10/24 06:53:05;;;;;;;;;;;;;;;;;;6176261;23;19920;-93
2023/10/24 06:55:31;;;;;;;;;;;;;;;;;;6175441;23;19943;-92
2023/10/24 06:57:58;;;;;;;;;;;;;;;;;;6172669;23;19994;-92
2023/10/24 07:00:24;;;;;;;;;;;;;;;;;;6175149;23;19926;-92
2023/10/24 07:02:51;;;;;;;;;;;;;;;;;;6173746;23;20003;-93
2023/10/24 07:05:16;;;;;;;;;;;;;;;;;;6175494;23;19964;-92
2023/10/24 07:07:43;;;;;;;;;;;;;;;;;;6149165;23;20381;-92
2023/10/24 07:10:09;;;;;;;;;;;;;;;;;;6151113;23;19920;-92
2023/10/24 07:12:35;;;;;;;;;;;;;;;;;;6149976;23;20416;-91
2023/10/24 07:15:03;;;;;;;;;;;;;;;;;;6149492;23;19920;-92
2023/10/24 07:17:29;;;;;;;;;;;;;;;;;;6150947;23;19920;-92
2023/10/24 07:19:55;;;;;;;;;;;;;;;;;;6123170;23;19920;-92
2023/10/24 07:22:21;;;;;;;;;;;;;;;;;;6149956;23;19932;-92
2023/10/24 07:24:47;;;;;;;;;;;;;;;;;;6147872;23;19916;-92
2023/10/24 07:27:13;;;;;;;;;;;;;;;;;;6149514;23;19920;-92
2023/10/24 07:29:42;;;;;;;;;;;;;;;;;;6125235;23;19927;-93
2023/10/24 07:32:08;;;;;;;;;;;;;;;;;;6150275;23;20249;-91
2023/10/24 07:34:34;;;;;;;;;;;;;;;;;;6151658;23;19916;-92
2023/10/24 07:37:00;;;;;;;;;;;;;;;;;;6149112;23;20177;-92
2023/10/24 07:39:26;;;;;;;;;;;;;;;;;;6126164;23;20373;-92
2023/10/24 07:41:52;;;;;;;;;;;;;;;;;;6123669;23;20337;-93
2023/10/24 07:44:18;;;;;;;;;;;;;;;;;;6151238;23;19920;-93
2023/10/24 07:46:43;;;;;;;;;;;;;;;;;;6146016;23;20383;-92
2023/10/24 07:49:10;;;;;;;;;;;;;;;;;;6126200;23;19955;-92
2023/10/24 07:51:36;;;;;;;;;;;;;;;;;;6150445;23;19916;-93
2023/10/24 07:54:02;;;;;;;;;;;;;;;;;;6123615;23;19958;-92
2023/10/24 07:56:28;;;;;;;;;;;;;;;;;;6126143;23;20342;-92
2023/10/24 07:58:57;;;;;;;;;;;;;;;;;;6174296;23;19920;-92
2023/10/24 08:01:22;;;;;;;;;;;;;;;;;;6149975;23;19924;-92
2023/10/24 08:03:49;;;;;;;;;;;;;;;;;;6123818;23;20306;-92
2023/10/24 08:06:15;;;;;;;;;;;;;;;;;;6150135;23;19925;-92
2023/10/24 08:08:44;;;;;;;;;;;;;;;;;;6145622;23;19920;-92
2023/10/24 08:11:10;;;;;;;;;;;;;;;;;;6149924;23;19916;-92
2023/10/24 08:13:36;;;;;;;;;;;;;;;;;;6150280;23;20257;-91
2023/10/24 08:16:01;;;;;;;;;;;;;;;;;;6137896;23;19955;-92
2023/10/24 08:18:27;;;;;;;;;;;;;;;;;;6163370;23;19927;-91
2023/10/24 08:20:54;;;;;;;;;;;;;;;;;;6149509;23;20579;-92
2023/10/24 08:23:19;;;;;;;;;;;;;;;;;;6127103;23;19931;-95
2023/10/24 08:25:45;;;;;;;;;;;;;;;;;;6124360;23;19920;-92
2023/10/24 08:28:11;;;;;;;;;;;;;;;;;;6124243;23;19978;-92
2023/10/24 08:30:38;;;;;;;;;;;;;;;;;;6150141;23;19926;-92
2023/10/24 08:33:04;;;;;;;;;;;;;;;;;;6146836;23;19916;-92
2023/10/24 08:35:30;;;;;;;;;;;;;;;;;;6149509;23;20245;-92
2023/10/24 08:37:56;;;;;;;;;;;;;;;;;;6123625;23;19917;-91
2023/10/24 08:40:22;;;;;;;;;;;;;;;;;;6126125;23;20039;-92
2023/10/24 08:42:48;;;;;;;;;;;;;;;;;;6123694;23;19925;-91
2023/10/24 08:45:14;;;;;;;;;;;;;;;;;;6125618;23;19924;-91
2023/10/24 08:47:41;;;;;;;;;;;;;;;;;;6149482;23;19916;-92
2023/10/24 08:50:07;;;;;;;;;;;;;;;;;;6149494;23;19916;-91
2023/10/24 08:52:33;;;;;;;;;;;;;;;;;;6149530;23;19979;-92
2023/10/24 08:54:59;;;;;;;;;;;;;;;;;;6147997;23;20212;-91
2023/10/24 08:57:25;;;;;;;;;;;;;;;;;;6176768;23;19923;-91
2023/10/24 08:59:51;;;;;;;;;;;;;;;;;;6147243;23;19917;-94
2023/10/24 09:02:18;;;;;;;;;;;;;;;;;;6125051;23;19920;-91
2023/10/24 09:04:45;;;;;;;;;;;;;;;;;;6172961;23;19994;-91
2023/10/24 09:07:11;;;;;;;;;;;;;;;;;;6176668;23;19920;-91
2023/10/24 09:09:37;;;;;;;;;;;;;;;;;;6154779;23;19926;-91
2023/10/24 09:12:05;;;;;;;;;;;;;;;;;;6152152;23;20331;-91
2023/10/24 09:14:31;;;;;;;;;;;;;;;;;;6180172;23;19970;-92
2023/10/24 09:17:05;;;;;;;;;;;;;;;;;;6205292;23;20267;-92
2023/10/24 09:19:32;;;;;;;;;;;;;;;;;;6154943;23;19974;-92
2023/10/24 09:21:58;;;;;;;;;;;;;;;;;;6151983;23;19924;-91
2023/10/24 09:24:24;;;;;;;;;;;;;;;;;;6179703;23;19920;-92
2023/10/24 09:26:51;;;;;;;;;;;;;;;;;;6175342;23;19966;-92
2023/10/24 09:29:17;;;;;;;;;;;;;;;;;;6178516;23;19920;-92
2023/10/24 09:31:43;;;;;;;;;;;;;;;;;;6151215;23;20448;-92
2023/10/24 09:34:09;;;;;;;;;;;;;;;;;;6153303;23;19920;-92
2023/10/24 09:36:35;;;;;;;;;;;;;;;;;;6156354;23;19942;-91
2023/10/24 09:39:01;;;;;;;;;;;;;;;;;;6151981;23;19920;-92
2023/10/24 09:41:27;;;;;;;;;;;;;;;;;;6154381;23;19947;-92
2023/10/24 09:43:53;;;;;;;;;;;;;;;;;;6176930;23;20371;-92
2023/10/24 09:46:22;;;;;;;;;;;;;;;;;;6205190;23;19943;-91
2023/10/24 09:48:48;;;;;;;;;;;;;;;;;;6178188;23;19916;-92
2023/10/24 09:51:14;;;;;;;;;;;;;;;;;;6155320;23;20324;-92
2023/10/24 09:53:40;;;;;;;;;;;;;;;;;;6152295;23;20013;-92
2023/10/24 09:56:06;;;;;;;;;;;;;;;;;;6204996;23;19991;-91
2023/10/24 09:58:34;;;;;;;;;;;;;;;;;;6153330;23;19951;-92
2023/10/24 10:01:00;;;;;;;;;;;;;;;;;;6177639;23;20231;-92
2023/10/24 10:03:26;;;;;;;;;;;;;;;;;;6179810;23;20363;-92
2023/10/24 10:05:52;;;;;;;;;;;;;;;;;;6177344;23;19962;-91
2023/10/24 10:08:18;;;;;;;;;;;;;;;;;;6178502;23;19970;-91
2023/10/24 10:10:44;;;;;;;;;;;;;;;;;;6204028;23;19923;-92
2023/10/24 10:13:10;;;;;;;;;;;;;;;;;;6178722;23;19916;-92
2023/10/24 10:15:37;;;;;;;;;;;;;;;;;;6178899;23;19942;-92
2023/10/24 10:18:03;;;;;;;;;;;;;;;;;;6178505;23;19924;-91
2023/10/24 10:20:30;;;;;;;;;;;;;;;;;;6181663;23;20337;-92
2023/10/24 10:22:55;;;;;;;;;;;;;;;;;;6179393;23;20328;-91
2023/10/24 10:25:21;;;;;;;;;;;;;;;;;;6181868;23;19919;-91
2023/10/24 10:27:47;;;;;;;;;;;;;;;;;;6179795;23;19938;-92
2023/10/24 10:30:14;;;;;;;;;;;;;;;;;;6154908;23;19966;-92
2023/10/24 10:32:40;;;;;;;;;;;;;;;;;;6154928;23;19926;-91
2023/10/24 10:35:06;;;;;;;;;;;;;;;;;;6156200;23;20334;-92
2023/10/24 10:37:32;;;;;;;;;;;;;;;;;;6181614;23;19964;-91
2023/10/24 10:39:58;;;;;;;;;;;;;;;;;;6179286;23;19938;-92
2023/10/24 10:42:24;;;;;;;;;;;;;;;;;;6180414;23;19965;-91
2023/10/24 10:44:49;;;;;;;;;;;;;;;;;;6154113;23;19920;-91
2023/10/24 10:47:16;;;;;;;;;;;;;;;;;;6180922;23;19920;-91
2023/10/24 10:49:41;;;;;;;;;;;;;;;;;;6153746;23;20262;-91
2023/10/24 10:52:07;;;;;;;;;;;;;;;;;;6180676;23;19920;-91
2023/10/24 10:54:33;;;;;;;;;;;;;;;;;;6179406;23;19923;-92
2023/10/24 10:56:59;;;;;;;;;;;;;;;;;;6154993;23;20252;-91
2023/10/24 10:59:31;;;;;;;;;;;;;;;;;;6158253;23;19938;-91
2023/10/24 11:01:57;;;;;;;;;;;;;;;;;;6179006;23;19994;-92
2023/10/24 11:04:23;;;;;;;;;;;;;;;;;;6181385;23;20356;-91
2023/10/24 11:06:49;;;;;;;;;;;;;;;;;;6174719;23;19924;-92
2023/10/24 11:09:14;;;;;;;;;;;;;;;;;;6155064;23;19948;-91
2023/10/24 11:11:40;;;;;;;;;;;;;;;;;;6154033;23;19923;-91
2023/10/24 11:14:06;;;;;;;;;;;;;;;;;;6156678;23;19916;-92
2023/10/24 11:16:32;;;;;;;;;;;;;;;;;;6181313;23;19994;-91
2023/10/24 11:18:58;;;;;;;;;;;;;;;;;;6177360;23;19924;-92
2023/10/24 11:21:24;;;;;;;;;;;;;;;;;;6156113;23;19920;-91
2023/10/24 11:23:51;;;;;;;;;;;;;;;;;;6153900;23;19923;-92
2023/10/24 11:26:19;;;;;;;;;;;;;;;;;;6157023;23;20340;-92
2023/10/24 11:29:05;;;;;;;;;;;;;;;;;;;;;
2023/10/24 11:31:31;;;;;;;;;;;;;;;;;;6181100;23;19920;-92
2023/10/24 11:34:06;;;;;;;;;;;;;;;;;;6153684;23;20356;-92
2023/10/24 11:36:32;;;;;;;;;;;;;;;;;;6180553;23;19916;-91
2023/10/24 11:38:58;;;;;;;;;;;;;;;;;;6178668;23;19944;-91
2023/10/24 11:41:24;;;;;;;;;;;;;;;;;;6181998;23;19927;-91
2023/10/24 11:43:51;;;;;;;;;;;;;;;;;;6205578;23;19927;-92
2023/10/24 11:46:17;;;;;;;;;;;;;;;;;;6180622;23;19985;-92
2023/10/24 11:48:43;;;;;;;;;;;;;;;;;;6153657;23;19924;-91
2023/10/24 11:51:09;;;;;;;;;;;;;;;;;;6179920;23;20337;-91
2023/10/24 11:53:35;;;;;;;;;;;;;;;;;;6154853;23;19920;-92
2023/10/24 11:56:01;;;;;;;;;;;;;;;;;;6152908;23;19920;-91
2023/10/24 11:58:27;;;;;;;;;;;;;;;;;;6156258;23;19970;-91
2023/10/24 12:00:52;;;;;;;;;;;;;;;;;;6153179;23;20305;-92
2023/10/24 12:03:18;;;;;;;;;;;;;;;;;;6177685;23;19924;-92
2023/10/24 12:05:44;;;;;;;;;;;;;;;;;;6147172;23;19924;-91
2023/10/24 12:08:10;;;;;;;;;;;;;;;;;;6149468;23;20249;-91
2023/10/24 12:10:36;;;;;;;;;;;;;;;;;;6149913;23;19924;-91
2023/10/24 12:13:02;;;;;;;;;;;;;;;;;;6148523;23;19995;-91
2023/10/24 12:15:28;;;;;;;;;;;;;;;;;;6150157;23;19959;-91
2023/10/24 12:17:56;;;;;;;;;;;;;;;;;;6148225;23;20369;-92
2023/10/24 12:20:22;;;;;;;;;;;;;;;;;;6151384;23;19920;-93
2023/10/24 12:22:48;;;;;;;;;;;;;;;;;;6147771;23;20254;-92
2023/10/24 12:25:14;;;;;;;;;;;;;;;;;;6150344;23;19920;-92
2023/10/24 12:27:40;;;;;;;;;;;;;;;;;;6148446;23;19920;-91
2023/10/24 12:30:06;;;;;;;;;;;;;;;;;;6150710;23;19955;-91
2023/10/24 12:32:32;;;;;;;;;;;;;;;;;;6149526;23;20018;-91
2023/10/24 12:34:58;;;;;;;;;;;;;;;;;;6148692;23;19916;-92
2023/10/24 12:37:24;;;;;;;;;;;;;;;;;;6150075;23;19990;-92
2023/10/24 12:39:51;;;;;;;;;;;;;;;;;;6147956;23;19920;-92
2023/10/24 12:42:17;;;;;;;;;;;;;;;;;;6150512;23;19987;-92
2023/10/24 12:44:43;;;;;;;;;;;;;;;;;;6148053;23;19936;-93
2023/10/24 12:47:11;;;;;;;;;;;;;;;;;;6150539;23;19916;-91
2023/10/24 12:49:37;;;;;;;;;;;;;;;;;;6149783;23;19917;-92
2023/10/24 12:52:03;;;;;;;;;;;;;;;;;;6147341;23;19971;-91
2023/10/24 12:54:29;;;;;;;;;;;;;;;;;;6151318;23;19916;-91
2023/10/24 12:56:55;;;;;;;;;;;;;;;;;;6149049;23;19927;-92
2023/10/24 12:59:21;;;;;;;;;;;;;;;;;;6151135;23;19927;-92
2023/10/24 13:01:47;;;;;;;;;;;;;;;;;;6148199;23;19991;-92
2023/10/24 13:04:13;;;;;;;;;;;;;;;;;;6151976;23;19924;-91
2023/10/24 13:06:42;;;;;;;;;;;;;;;;;;6169504;23;20018;-91
2023/10/24 13:09:08;;;;;;;;;;;;;;;;;;6172716;23;20428;-92
2023/10/24 13:11:36;;;;;;;;;;;;;;;;;;6174901;23;19970;-92
2023/10/24 13:14:05;;;;;;;;;;;;;;;;;;6177188;23;19920;-91
2023/10/24 13:16:31;;;;;;;;;;;;;;;;;;6174029;23;20486;-91
2023/10/24 13:18:57;;;;;;;;;;;;;;;;;;6172575;23;20237;-91
2023/10/24 13:21:23;;;;;;;;;;;;;;;;;;6174661;23;20226;-91
2023/10/24 13:23:49;;;;;;;;;;;;;;;;;;6173483;23;20353;-91
2023/10/24 13:26:15;;;;;;;;;;;;;;;;;;6176491;23;20326;-90
2023/10/24 13:28:41;;;;;;;;;;;;;;;;;;6172307;23;19924;-91
2023/10/24 13:31:08;;;;;;;;;;;;;;;;;;6173313;23;19924;-91
2023/10/24 13:33:36;;;;;;;;;;;;;;;;;;6150149;23;19920;-91
2023/10/24 13:36:02;;;;;;;;;;;;;;;;;;6173116;23;19920;-92
2023/10/24 13:38:28;;;;;;;;;;;;;;;;;;6149856;23;19916;-92
2023/10/24 13:40:54;;;;;;;;;;;;;;;;;;6172164;23;20256;-91
2023/10/24 13:43:20;;;;;;;;;;;;;;;;;;6174868;23;19920;-91
2023/10/24 13:45:46;;;;;;;;;;;;;;;;;;6172172;23;19987;-91
2023/10/24 13:48:12;;;;;;;;;;;;;;;;;;6175795;23;19931;-91
2023/10/24 13:50:38;;;;;;;;;;;;;;;;;;6175059;23;20281;-92
2023/10/24 13:53:04;;;;;;;;;;;;;;;;;;6173391;23;19969;-91
2023/10/24 13:55:32;;;;;;;;;;;;;;;;;;6175836;23;19927;-91
2023/10/24 13:57:58;;;;;;;;;;;;;;;;;;6148708;23;19971;-91
2023/10/24 14:00:24;;;;;;;;;;;;;;;;;;6174345;23;19920;-92
2023/10/24 14:02:50;;;;;;;;;;;;;;;;;;6172945;23;19995;-91
2023/10/24 14:05:16;;;;;;;;;;;;;;;;;;6176299;23;20353;-91
2023/10/24 14:07:43;;;;;;;;;;;;;;;;;;6144852;23;19920;-91
2023/10/24 14:10:09;;;;;;;;;;;;;;;;;;6198978;23;20018;-91
2023/10/24 14:12:35;;;;;;;;;;;;;;;;;;6149930;23;20312;-92
2023/10/24 14:15:04;;;;;;;;;;;;;;;;;;6147969;23;19920;-92
2023/10/24 14:17:30;;;;;;;;;;;;;;;;;;6150139;23;19990;-91
2023/10/24 14:19:56;;;;;;;;;;;;;;;;;;6147529;23;19948;-91
2023/10/24 14:22:22;;;;;;;;;;;;;;;;;;6150400;23;19924;-91
2023/10/24 14:24:48;;;;;;;;;;;;;;;;;;6148162;23;20353;-92
2023/10/24 14:27:14;;;;;;;;;;;;;;;;;;6150019;23;20004;-92
2023/10/24 14:29:40;;;;;;;;;;;;;;;;;;6147407;23;20354;-92
2023/10/24 14:32:06;;;;;;;;;;;;;;;;;;6200072;23;20269;-92
2023/10/24 14:34:32;;;;;;;;;;;;;;;;;;6149865;23;19970;-92
2023/10/24 14:36:58;;;;;;;;;;;;;;;;;;6146881;23;19952;-91
2023/10/24 14:39:24;;;;;;;;;;;;;;;;;;6150155;23;19928;-92
2023/10/24 14:41:51;;;;;;;;;;;;;;;;;;6146930;23;19921;-92
2023/10/24 14:44:17;;;;;;;;;;;;;;;;;;6149988;23;19923;-91
2023/10/24 14:46:43;;;;;;;;;;;;;;;;;;6147564;23;19931;-91
2023/10/24 14:49:15;;;;;;;;;;;;;;;;;;6155243;23;19900;-90
2023/10/24 14:51:43;;;;;;;;;;;;;;;;;;6175861;22;20195;-91
2023/10/24 14:54:10;;;;;;;;;;;;;;;;;;6152940;23;19971;-91
2023/10/24 14:56:37;;;;;;;;;;;;;;;;;;6150160;23;19917;-92
2023/10/24 14:59:06;;;;;;;;;;;;;;;;;;6150083;23;20051;-90
2023/10/24 15:01:32;;;;;;;;;;;;;;;;;;6149224;23;20281;-91
2023/10/24 15:03:58;;;;;;;;;;;;;;;;;;6148987;23;19924;-90
2023/10/24 15:06:24;;;;;;;;;;;;;;;;;;6150424;23;19995;-90
2023/10/24 15:08:50;;;;;;;;;;;;;;;;;;6175483;23;19920;-91
2023/10/24 15:11:16;;;;;;;;;;;;;;;;;;6127233;23;19951;-91
2023/10/24 15:13:42;;;;;;;;;;;;;;;;;;6146968;23;19924;-95
2023/10/24 15:16:08;;;;;;;;;;;;;;;;;;6151476;23;19924;-89
2023/10/24 15:18:34;;;;;;;;;;;;;;;;;;6122544;23;20451;-90
2023/10/24 15:21:00;;;;;;;;;;;;;;;;;;6121630;23;20134;-92
2023/10/24 15:23:26;;;;;;;;;;;;;;;;;;6121022;23;19924;-91
2023/10/24 15:25:53;;;;;;;;;;;;;;;;;;6120934;23;19987;-91
2023/10/24 15:28:19;;;;;;;;;;;;;;;;;;6144111;23;19948;-93
2023/10/24 15:30:46;;;;;;;;;;;;;;;;;;6143710;23;19920;-91
2023/10/24 15:33:12;;;;;;;;;;;;;;;;;;6123393;23;20322;-92
2023/10/24 15:35:44;;;;;;;;;;;;;;;;;;6121489;23;19920;-91
2023/10/24 15:38:19;;;;;;;;;;;;;;;;;;6124962;23;20245;-90
2023/10/24 15:40:48;;;;;;;;;;;;;;;;;;6119717;23;19920;-91
2023/10/24 15:43:14;;;;;;;;;;;;;;;;;;6121016;23;19924;-94
2023/10/24 15:45:40;;;;;;;;;;;;;;;;;;6138252;23;20230;-91
2023/10/24 15:48:06;;;;;;;;;;;;;;;;;;6117555;23;19955;-92
2023/10/24 15:50:32;;;;;;;;;;;;;;;;;;6144554;23;19943;-91
2023/10/24 15:52:58;;;;;;;;;;;;;;;;;;6166053;23;19927;-92
2023/10/24 15:55:24;;;;;;;;;;;;;;;;;;6142720;23;19927;-92
2023/10/24 15:57:50;;;;;;;;;;;;;;;;;;6139917;23;19975;-91
2023/10/24 16:00:16;;;;;;;;;;;;;;;;;;6118145;23;19958;-92
2023/10/24 16:02:42;;;;;;;;;;;;;;;;;;6115483;23;19935;-91
2023/10/24 16:05:08;;;;;;;;;;;;;;;;;;6124927;23;19924;-92
2023/10/24 16:07:34;;;;;;;;;;;;;;;;;;6171592;23;19950;-92
2023/10/24 16:10:00;;;;;;;;;;;;;;;;;;6171188;23;20554;-90
2023/10/24 16:12:26;;;;;;;;;;;;;;;;;;6173533;23;20362;-91
2023/10/24 16:14:52;;;;;;;;;;;;;;;;;;6167823;23;19924;-91
2023/10/24 16:17:18;;;;;;;;;;;;;;;;;;6172458;23;19927;-96
2023/10/24 16:19:45;;;;;;;;;;;;;;;;;;6146744;23;19943;-92
2023/10/24 16:28:42;;;;;;;;;;;;;;;;;;6161841;23;19921;-89
2023/10/24 16:31:18;;;;;;;;;;;;;;;;;;6176862;23;19923;-88
2023/10/24 16:33:56;;;;;;;;;;;;;;;;;;6203329;23;20406;-88
2023/10/24 16:36:30;;;;;;;;;;;;;;;;;;6181511;23;20245;-88
2023/10/24 16:38:56;;;;;;;;;;;;;;;;;;6177015;23;20083;-88
2023/10/24 16:41:25;;;;;;;;;;;;;;;;;;6202286;23;19915;-88
2023/10/24 16:44:12;;;;;;;;;;;;;;;;;;6175262;23;19930;-89
2023/10/24 16:46:55;;;;;;;;;;;;;;;;;;6178394;23;19924;-88